Time;durP1;ratioP1;P1;durP2;ratioP2;P2;SDS_P1;SDS_P2;PMS_P1;PMS_P2;Temp;Humidity;BMP_temperature;BMP_pressure;BME280_temperature;BME280_humidity;BME280_pressure;Samples;Min_cycle;Max_cycle;Signal;HPM_P1;HPM_P2
2022/01/10 00:00:53;;;;;;;9.47;9.17;;;2.30;99.90;;;;;;5077791;28;20238;-82
2022/01/10 00:03:22;;;;;;;9.73;9.43;;;2.30;99.90;;;;;;5079307;28;20230;-81
2022/01/10 00:05:49;;;;;;;9.73;9.43;;;2.20;99.90;;;;;;5078916;28;20265;-81
2022/01/10 00:08:17;;;;;;;9.80;9.50;;;2.20;99.90;;;;;;5102458;28;20221;-81
2022/01/10 00:10:46;;;;;;;9.60;9.30;;;2.20;99.90;;;;;;5098079;28;20230;-82
2022/01/10 00:13:14;;;;;;;9.50;9.20;;;2.20;99.90;;;;;;5097045;28;20235;-84
2022/01/10 00:15:44;;;;;;;9.50;9.20;;;2.20;99.90;;;;;;5097789;28;20217;-82
2022/01/10 00:18:12;;;;;;;9.70;9.40;;;2.20;99.90;;;;;;5106835;28;20240;-82
2022/01/10 00:20:40;;;;;;;9.60;9.30;;;2.30;99.90;;;;;;5108826;28;20226;-82
2022/01/10 00:23:09;;;;;;;9.63;9.33;;;2.30;99.90;;;;;;5117539;27;20236;-81
2022/01/10 00:25:37;;;;;;;9.60;9.30;;;2.30;99.90;;;;;;5118076;27;20223;-81
2022/01/10 00:28:05;;;;;;;9.30;9.00;;;2.30;99.90;;;;;;5118761;28;20225;-81
2022/01/10 00:30:32;;;;;;;9.70;9.40;;;2.30;99.90;;;;;;5118791;27;20297;-81
2022/01/10 00:33:02;;;;;;;9.30;9.00;;;2.30;99.90;;;;;;5118168;28;20213;-81
2022/01/10 00:35:29;;;;;;;9.43;9.13;;;2.40;99.90;;;;;;5127768;27;20225;-80
2022/01/10 00:37:57;;;;;;;9.70;9.40;;;2.40;99.90;;;;;;5148015;22;20233;-81
2022/01/10 00:40:25;;;;;;;9.60;9.30;;;2.40;99.90;;;;;;5120789;27;20302;-80
2022/01/10 00:42:56;;;;;;;9.70;9.40;;;2.50;99.90;;;;;;5112187;28;20237;-81
2022/01/10 00:45:27;;;;;;;9.77;9.47;;;2.50;99.90;;;;;;5121661;28;20240;-81
2022/01/10 00:47:59;;;;;;;9.50;9.20;;;2.50;99.90;;;;;;5120915;27;20239;-80
2022/01/10 00:50:35;;;;;;;9.50;9.20;;;2.50;99.90;;;;;;5121452;28;20233;-80
2022/01/10 00:53:03;;;;;;;9.57;9.27;;;2.50;99.90;;;;;;5122279;28;20232;-80
2022/01/10 00:55:34;;;;;;;9.50;9.20;;;2.50;99.90;;;;;;5120998;27;20212;-80
2022/01/10 00:58:02;;;;;;;9.27;8.97;;;2.50;99.90;;;;;;5121115;28;20251;-79
2022/01/10 01:00:32;;;;;;;9.50;9.20;;;2.50;99.90;;;;;;5112572;27;20256;-80
2022/01/10 01:03:01;;;;;;;9.40;9.10;;;2.50;99.90;;;;;;5120174;28;20282;-80
2022/01/10 01:05:34;;;;;;;9.57;9.27;;;2.50;99.90;;;;;;5121071;28;20286;-80
2022/01/10 01:08:06;;;;;;;9.60;9.30;;;2.50;99.90;;;;;;5120737;28;20233;-81
2022/01/10 01:13:29;;;;;;;9.50;9.20;;;2.40;99.90;;;;;;5117417;28;20273;-80
2022/01/10 01:16:11;;;;;;;9.60;9.30;;;2.40;99.90;;;;;;5123935;27;20270;-80
2022/01/10 01:24:17;;;;;;;9.30;9.00;;;2.40;99.90;;;;;;5124398;28;20213;-79
2022/01/10 01:26:48;;;;;;;9.50;9.20;;;2.40;99.90;;;;;;5122889;28;20270;-80
2022/01/10 01:29:19;;;;;;;9.47;9.17;;;2.40;99.90;;;;;;5123585;28;20233;-80
2022/01/10 01:31:47;;;;;;;9.10;8.80;;;2.40;99.90;;;;;;5123607;28;20221;-80
2022/01/10 01:34:15;;;;;;;9.30;9.00;;;2.40;99.90;;;;;;5123650;28;20251;-80
2022/01/10 01:36:48;;;;;;;9.60;9.30;;;2.40;99.90;;;;;;5137003;27;20232;-80
2022/01/10 01:39:21;;;;;;;9.40;9.10;;;2.40;99.90;;;;;;5134838;28;20221;-79
2022/01/10 01:41:49;;;;;;;9.50;9.20;;;2.40;99.90;;;;;;5127795;27;20227;-79
2022/01/10 01:44:22;;;;;;;9.47;9.17;;;2.40;99.90;;;;;;5125684;27;20296;-80
2022/01/10 01:46:52;;;;;;;9.50;9.20;;;2.40;99.90;;;;;;5124277;28;20225;-80
2022/01/10 01:49:21;;;;;;;9.10;8.80;;;2.40;99.90;;;;;;5124528;28;20225;-80
2022/01/10 01:51:53;;;;;;;9.40;9.10;;;2.40;99.90;;;;;;5120801;28;20280;-79
2022/01/10 01:54:21;;;;;;;9.20;8.90;;;2.40;99.90;;;;;;5103736;28;20229;-80
2022/01/10 01:56:50;;;;;;;9.33;9.03;;;2.40;99.90;;;;;;5082503;28;20230;-80
2022/01/10 01:59:19;;;;;;;9.30;9.00;;;2.40;99.90;;;;;;5082784;28;21140;-80
2022/01/10 02:01:46;;;;;;;9.40;9.10;;;2.40;99.90;;;;;;5082859;28;20311;-79
2022/01/10 02:04:16;;;;;;;9.20;8.90;;;2.40;99.90;;;;;;5081961;28;20725;-80
2022/01/10 02:06:49;;;;;;;9.23;8.93;;;2.40;99.90;;;;;;5081817;28;20238;-80
2022/01/10 02:09:18;;;;;;;9.30;9.00;;;2.40;99.90;;;;;;5082414;28;20230;-79
2022/01/10 02:11:46;;;;;;;9.30;9.00;;;2.40;99.90;;;;;;5082199;28;20336;-80
2022/01/10 02:14:16;;;;;;;9.10;8.80;;;2.50;99.90;;;;;;5082068;28;20304;-80
2022/01/10 02:16:51;;;;;;;9.57;9.27;;;2.40;99.90;;;;;;5082725;28;20265;-79
2022/01/10 02:19:24;;;;;;;9.40;9.10;;;2.40;99.90;;;;;;5081983;28;20288;-79
2022/01/10 02:21:55;;;;;;;9.40;9.10;;;2.30;99.90;;;;;;5081792;28;20284;-79
2022/01/10 02:24:23;;;;;;;9.50;9.20;;;2.30;99.90;;;;;;5083172;28;20240;-79
2022/01/10 02:26:51;;;;;;;9.40;9.10;;;2.30;99.90;;;;;;5094987;28;20210;-79
2022/01/10 02:29:20;;;;;;;9.30;9.00;;;2.30;99.90;;;;;;5099279;28;20230;-79
2022/01/10 02:31:50;;;;;;;9.53;9.23;;;2.30;99.90;;;;;;5097500;28;20230;-79
2022/01/10 02:34:23;;;;;;;9.27;8.97;;;2.30;99.90;;;;;;5091254;28;20252;-81
2022/01/10 02:36:57;;;;;;;9.20;8.90;;;2.30;99.90;;;;;;5085891;28;20241;-80
2022/01/10 02:39:24;;;;;;;9.20;8.90;;;2.40;99.90;;;;;;5085102;28;20246;-79
2022/01/10 02:41:54;;;;;;;9.40;9.10;;;2.40;99.90;;;;;;5083812;28;20222;-80
2022/01/10 02:44:29;;;;;;;9.47;9.17;;;2.40;99.90;;;;;;5083536;28;20222;-80
2022/01/10 02:46:57;;;;;;;9.30;9.00;;;2.40;99.90;;;;;;5082802;28;20226;-80
2022/01/10 02:49:28;;;;;;;9.40;9.10;;;2.40;99.90;;;;;;5082691;28;20257;-78
2022/01/10 02:52:03;;;;;;;9.23;8.93;;;2.30;99.90;;;;;;5083306;28;20253;-79
2022/01/10 02:54:32;;;;;;;9.30;9.00;;;2.30;99.90;;;;;;5088828;28;20229;-79
2022/01/10 02:57:02;;;;;;;9.40;9.10;;;2.30;99.90;;;;;;5098793;28;20225;-78
2022/01/10 02:59:31;;;;;;;9.20;8.90;;;2.30;99.90;;;;;;5099299;28;20241;-78
2022/01/10 03:02:00;;;;;;;9.50;9.20;;;2.30;99.90;;;;;;5098819;28;20241;-78
2022/01/10 03:04:30;;;;;;;9.17;8.87;;;2.30;99.90;;;;;;5091550;28;20230;-80
2022/01/10 03:07:01;;;;;;;9.37;9.07;;;2.40;99.90;;;;;;5083678;28;20292;-79
2022/01/10 03:09:29;;;;;;;9.10;8.80;;;2.40;99.90;;;;;;5083642;28;20296;-79
2022/01/10 03:11:59;;;;;;;9.40;9.10;;;2.40;99.90;;;;;;5082886;28;20253;-80
2022/01/10 03:14:28;;;;;;;9.10;8.80;;;2.40;99.90;;;;;;5082065;28;20229;-79
2022/01/10 03:16:57;;;;;;;9.20;8.90;;;2.40;99.90;;;;;;5081514;28;20238;-79
2022/01/10 03:19:27;;;;;;;9.30;9.00;;;2.40;99.90;;;;;;5081401;28;20287;-79
2022/01/10 03:21:57;;;;;;;9.27;8.97;;;2.40;99.90;;;;;;5081177;28;20234;-79
2022/01/10 03:24:29;;;;;;;9.03;8.73;;;2.40;99.90;;;;;;5080822;28;20233;-79
2022/01/10 03:26:57;;;;;;;9.40;9.10;;;2.40;99.90;;;;;;5080375;28;20238;-79
2022/01/10 03:29:26;;;;;;;9.40;9.10;;;2.40;99.90;;;;;;5081050;28;20256;-79
2022/01/10 03:31:56;;;;;;;9.20;8.90;;;2.40;99.90;;;;;;5080212;28;20226;-79
2022/01/10 03:34:25;;;;;;;9.00;8.70;;;2.40;99.90;;;;;;5080454;28;20300;-79
2022/01/10 03:36:54;;;;;;;9.33;9.03;;;2.50;99.90;;;;;;5079023;28;20238;-78
2022/01/10 03:39:25;;;;;;;9.40;9.10;;;2.50;99.90;;;;;;5080694;28;20230;-79
2022/01/10 03:41:56;;;;;;;9.20;8.90;;;2.50;99.90;;;;;;5080492;28;20234;-78
2022/01/10 03:44:24;;;;;;;9.30;9.00;;;2.50;99.90;;;;;;5080874;28;20260;-79
2022/01/10 03:46:53;;;;;;;9.30;9.00;;;2.50;99.90;;;;;;5080330;28;20237;-79
2022/01/10 03:49:22;;;;;;;9.30;9.00;;;2.50;99.90;;;;;;5080754;28;20234;-78
2022/01/10 03:51:51;;;;;;;9.33;9.03;;;2.50;99.90;;;;;;5080774;28;20288;-79
2022/01/10 03:54:22;;;;;;;9.10;8.80;;;2.50;99.90;;;;;;5081964;28;20233;-77
2022/01/10 03:56:50;;;;;;;9.03;8.73;;;2.50;99.90;;;;;;5090980;28;20218;-79
2022/01/10 03:59:21;;;;;;;9.10;8.80;;;2.50;99.90;;;;;;5083690;28;20230;-79
2022/01/10 04:01:51;;;;;;;9.30;9.00;;;2.40;99.90;;;;;;5082456;28;20238;-79
2022/01/10 04:04:19;;;;;;;9.50;9.20;;;2.40;99.90;;;;;;5081274;28;20266;-79
2022/01/10 04:06:49;;;;;;;9.70;9.40;;;2.40;99.90;;;;;;5081415;28;20238;-79
2022/01/10 04:09:19;;;;;;;9.47;9.17;;;2.30;99.90;;;;;;5081527;28;20345;-79
2022/01/10 04:11:47;;;;;;;9.70;9.40;;;2.30;99.90;;;;;;5081424;28;20238;-79
2022/01/10 04:14:16;;;;;;;9.50;9.20;;;2.30;99.90;;;;;;5089879;28;20222;-79
2022/01/10 04:16:46;;;;;;;9.60;9.30;;;2.30;99.90;;;;;;5079614;28;20230;-79
2022/01/10 04:19:16;;;;;;;9.50;9.20;;;2.20;99.90;;;;;;5079439;28;20292;-79
2022/01/10 04:21:45;;;;;;;9.50;9.20;;;2.20;99.90;;;;;;5079103;28;20226;-78
2022/01/10 04:24:15;;;;;;;9.80;9.50;;;2.20;99.90;;;;;;5079584;28;20284;-79
2022/01/10 04:26:43;;;;;;;9.57;9.27;;;2.20;99.90;;;;;;5079316;28;20249;-79
2022/01/10 04:29:13;;;;;;;9.40;9.10;;;2.20;99.90;;;;;;5079319;28;20234;-79
2022/01/10 04:31:43;;;;;;;9.50;9.20;;;2.20;99.90;;;;;;5079216;28;20234;-79
2022/01/10 04:34:15;;;;;;;9.40;9.10;;;2.20;99.90;;;;;;5079436;28;20218;-79
2022/01/10 04:36:43;;;;;;;9.23;8.93;;;2.20;99.90;;;;;;5079242;28;20226;-78
2022/01/10 04:39:11;;;;;;;9.33;9.03;;;2.20;99.90;;;;;;5079659;28;20234;-79
2022/01/10 04:41:41;;;;;;;9.30;9.00;;;2.30;99.90;;;;;;5080058;28;20252;-78
2022/01/10 04:44:09;;;;;;;9.50;9.20;;;2.30;99.90;;;;;;5080564;28;20270;-79
2022/01/10 04:46:39;;;;;;;9.50;9.20;;;2.30;99.90;;;;;;5092731;28;20253;-78
2022/01/10 04:49:17;;;;;;;9.50;9.20;;;2.30;99.90;;;;;;5089373;28;20260;-79
2022/01/10 04:51:53;;;;;;;9.40;9.10;;;2.30;99.90;;;;;;5085697;28;20225;-78
2022/01/10 04:54:26;;;;;;;9.33;9.03;;;2.30;99.90;;;;;;5085355;28;20237;-79
2022/01/10 04:56:54;;;;;;;9.60;9.30;;;2.40;99.90;;;;;;5084444;28;20222;-79
2022/01/10 04:59:23;;;;;;;9.77;9.47;;;2.40;99.90;;;;;;5084490;28;20252;-79
2022/01/10 05:01:53;;;;;;;9.50;9.20;;;2.40;99.90;;;;;;5084938;28;20237;-79
2022/01/10 05:04:23;;;;;;;9.60;9.30;;;2.40;99.90;;;;;;5085666;28;20234;-79
2022/01/10 05:06:52;;;;;;;9.60;9.30;;;2.30;99.90;;;;;;5084920;28;20261;-79
2022/01/10 05:09:21;;;;;;;9.60;9.30;;;2.30;99.90;;;;;;5086054;28;20237;-79
2022/01/10 05:11:51;;;;;;;9.57;9.27;;;2.30;99.90;;;;;;5085654;28;20226;-80
2022/01/10 05:14:20;;;;;;;9.37;9.07;;;2.30;99.90;;;;;;5086513;28;20230;-79
2022/01/10 05:16:49;;;;;;;9.60;9.30;;;2.40;99.90;;;;;;5090225;28;20252;-79
2022/01/10 05:19:19;;;;;;;9.70;9.40;;;2.40;99.90;;;;;;5098463;28;20226;-77
2022/01/10 05:21:49;;;;;;;9.10;8.80;;;2.30;99.90;;;;;;5100975;28;20222;-77
2022/01/10 05:24:20;;;;;;;9.50;9.20;;;2.30;99.90;;;;;;5101050;28;20237;-78
2022/01/10 05:26:48;;;;;;;9.30;9.00;;;2.30;99.90;;;;;;5101083;28;20218;-77
2022/01/10 05:29:19;;;;;;;9.80;9.50;;;2.30;99.90;;;;;;5092147;28;20263;-80
2022/01/10 05:31:47;;;;;;;9.40;9.10;;;2.30;99.90;;;;;;5087031;28;20284;-79
2022/01/10 05:34:18;;;;;;;9.70;9.40;;;2.20;99.90;;;;;;5085363;28;20241;-80
2022/01/10 05:36:47;;;;;;;9.60;9.30;;;2.30;99.90;;;;;;5083861;28;20226;-79
2022/01/10 05:39:18;;;;;;;9.80;9.50;;;2.30;99.90;;;;;;5084323;28;20238;-79
2022/01/10 05:41:46;;;;;;;9.50;9.20;;;2.20;99.90;;;;;;5084171;28;20222;-78
2022/01/10 05:44:13;;;;;;;9.30;9.00;;;2.30;99.90;;;;;;5084277;28;20245;-80
2022/01/10 05:46:46;;;;;;;9.47;9.17;;;2.30;99.90;;;;;;5084034;28;20237;-79
2022/01/10 05:49:18;;;;;;;9.30;9.00;;;2.30;99.90;;;;;;5083788;28;20214;-79
2022/01/10 05:51:46;;;;;;;9.30;9.00;;;2.30;99.90;;;;;;5083826;28;20238;-79
2022/01/10 05:54:13;;;;;;;9.27;8.97;;;2.30;99.90;;;;;;5082855;28;20273;-78
2022/01/10 05:56:45;;;;;;;9.47;9.17;;;2.20;99.90;;;;;;5083321;28;20261;-79
2022/01/10 05:59:13;;;;;;;9.30;9.00;;;2.20;99.90;;;;;;5083157;28;20230;-79
2022/01/10 06:01:42;;;;;;;9.30;9.00;;;2.10;99.90;;;;;;5083400;28;20238;-79
2022/01/10 06:04:12;;;;;;;9.40;9.10;;;2.20;99.90;;;;;;5083395;28;20325;-79
2022/01/10 06:06:41;;;;;;;9.40;9.10;;;2.10;99.90;;;;;;5082719;28;20230;-78
2022/01/10 06:09:10;;;;;;;9.20;8.90;;;2.10;99.90;;;;;;5082788;28;20237;-77
2022/01/10 06:11:40;;;;;;;9.40;9.10;;;2.10;99.90;;;;;;5082430;28;20260;-78
2022/01/10 06:14:12;;;;;;;9.50;9.20;;;2.00;99.90;;;;;;5082391;28;20226;-78
2022/01/10 06:16:40;;;;;;;9.40;9.10;;;2.10;99.90;;;;;;5082418;28;20237;-80
2022/01/10 06:19:08;;;;;;;9.60;9.30;;;2.10;99.90;;;;;;5083497;28;20310;-79
2022/01/10 06:21:37;;;;;;;9.37;9.07;;;2.10;99.90;;;;;;5092590;28;20233;-79
2022/01/10 06:24:07;;;;;;;9.40;9.10;;;2.10;99.90;;;;;;5097681;28;20240;-80
2022/01/10 06:26:36;;;;;;;9.53;9.23;;;2.10;99.90;;;;;;5100575;28;20229;-80
2022/01/10 06:29:05;;;;;;;9.40;9.10;;;2.10;99.90;;;;;;5099092;28;20238;-81
2022/01/10 06:31:45;;;;;;;9.27;8.97;;;2.00;99.90;;;;;;5086851;28;20287;-80
2022/01/10 06:34:13;;;;;;;9.50;9.20;;;2.00;99.90;;;;;;5086173;28;21166;-80
2022/01/10 06:36:42;;;;;;;9.40;9.10;;;2.00;99.90;;;;;;5084282;28;20245;-81
2022/01/10 06:39:10;;;;;;;9.53;9.23;;;2.00;99.90;;;;;;5167465;22;20236;-80
2022/01/10 06:41:38;;;;;;;9.47;9.17;;;2.10;99.90;;;;;;5123946;27;20258;-80
2022/01/10 06:44:06;;;;;;;9.40;9.10;;;2.10;99.90;;;;;;5123635;27;20221;-80
2022/01/10 06:46:35;;;;;;;9.30;9.00;;;2.10;99.90;;;;;;5125605;28;20225;-80
2022/01/10 06:49:03;;;;;;;9.50;9.20;;;2.10;99.90;;;;;;5123959;28;20236;-80
2022/01/10 06:51:30;;;;;;;9.60;9.30;;;2.10;99.90;;;;;;5116550;27;20287;-80
2022/01/10 06:53:58;;;;;;;9.30;9.00;;;2.10;99.90;;;;;;5126036;28;20224;-81
2022/01/10 06:56:26;;;;;;;9.50;9.20;;;2.10;99.90;;;;;;5125993;28;20229;-80
2022/01/10 06:58:54;;;;;;;9.87;9.57;;;2.10;99.90;;;;;;5124738;27;20259;-80
2022/01/10 07:01:22;;;;;;;10.00;9.70;;;2.10;99.90;;;;;;5125214;28;20323;-80
2022/01/10 07:03:53;;;;;;;9.33;9.03;;;2.10;99.90;;;;;;5124602;28;20246;-80
2022/01/10 07:06:21;;;;;;;9.80;9.50;;;2.20;99.90;;;;;;5124361;28;20307;-80
2022/01/10 07:08:49;;;;;;;9.63;9.33;;;2.20;99.90;;;;;;5123929;28;20317;-80
2022/01/10 07:11:16;;;;;;;9.70;9.40;;;2.10;99.90;;;;;;5125290;27;20259;-81
2022/01/10 07:13:45;;;;;;;10.00;9.70;;;2.10;99.90;;;;;;5131032;28;20290;-80
2022/01/10 07:16:13;;;;;;;9.97;9.67;;;2.10;99.90;;;;;;5120771;28;20501;-80
2022/01/10 07:18:41;;;;;;;9.83;9.53;;;2.10;99.90;;;;;;5134642;28;20593;-80
2022/01/10 07:21:10;;;;;;;9.80;9.50;;;2.10;99.90;;;;;;5128798;27;20301;-80
2022/01/10 07:23:37;;;;;;;9.67;9.37;;;2.20;99.90;;;;;;5127866;27;20306;-81
2022/01/10 07:26:05;;;;;;;9.70;9.40;;;2.20;99.90;;;;;;5126839;28;20282;-80
2022/01/10 07:28:33;;;;;;;9.60;9.30;;;2.10;99.90;;;;;;5123851;27;20229;-80
2022/01/10 07:31:01;;;;;;;9.80;9.50;;;2.20;99.90;;;;;;5124553;28;20228;-80
2022/01/10 07:33:28;;;;;;;9.90;9.60;;;2.20;99.90;;;;;;5125617;28;20278;-80
2022/01/10 07:35:57;;;;;;;9.77;9.47;;;2.20;99.90;;;;;;5135612;27;20233;-80
2022/01/10 07:38:26;;;;;;;9.40;9.10;;;2.20;99.90;;;;;;5126180;28;20245;-80
2022/01/10 07:40:55;;;;;;;9.43;9.13;;;2.20;99.90;;;;;;5125245;27;20225;-80
2022/01/10 07:43:22;;;;;;;9.80;9.50;;;2.20;99.90;;;;;;5124439;27;20232;-80
2022/01/10 07:45:51;;;;;;;9.70;9.40;;;2.20;99.90;;;;;;5124710;27;20216;-81
2022/01/10 07:48:19;;;;;;;9.90;9.60;;;2.20;99.90;;;;;;5124800;27;20232;-80
2022/01/10 07:50:47;;;;;;;9.90;9.60;;;2.20;99.90;;;;;;5126016;28;20239;-80
2022/01/10 07:53:15;;;;;;;9.70;9.40;;;2.20;99.90;;;;;;5124443;27;20291;-80
2022/01/10 07:55:44;;;;;;;9.50;9.20;;;2.20;99.90;;;;;;5123856;27;20228;-81
2022/01/10 07:58:13;;;;;;;9.50;9.20;;;2.20;99.90;;;;;;5123972;27;21094;-80
2022/01/10 08:00:41;;;;;;;9.57;9.27;;;2.20;99.90;;;;;;5113324;27;20291;-81
2022/01/10 08:03:08;;;;;;;9.97;9.67;;;2.30;99.90;;;;;;5109560;28;20225;-80
2022/01/10 08:05:36;;;;;;;9.97;9.67;;;2.30;99.90;;;;;;5103588;28;20619;-80
2022/01/10 08:08:05;;;;;;;10.00;9.70;;;2.30;99.90;;;;;;5103775;28;20237;-80
2022/01/10 08:10:32;;;;;;;10.00;9.70;;;2.30;99.90;;;;;;5105279;28;20229;-81
2022/01/10 08:13:01;;;;;;;9.77;9.47;;;2.30;99.90;;;;;;5106328;28;20291;-81
2022/01/10 08:15:30;;;;;;;9.80;9.50;;;2.30;99.90;;;;;;5109120;28;20219;-79
2022/01/10 08:17:58;;;;;;;10.03;9.73;;;2.30;99.90;;;;;;5120002;27;20233;-81
2022/01/10 08:20:26;;;;;;;10.10;9.80;;;2.40;99.90;;;;;;5117394;27;20399;-80
2022/01/10 08:22:54;;;;;;;9.90;9.60;;;2.40;99.90;;;;;;5120767;27;20213;-80
2022/01/10 08:25:22;;;;;;;9.70;9.40;;;2.40;99.90;;;;;;5122726;27;20281;-81
2022/01/10 08:27:50;;;;;;;10.00;9.70;;;2.50;99.90;;;;;;5120554;27;20307;-82
2022/01/10 08:30:19;;;;;;;9.40;9.10;;;2.30;99.90;;;;;;5116257;28;20287;-83
2022/01/10 08:32:50;;;;;;;9.70;9.40;;;2.30;99.90;;;;;;5106442;28;20245;-83
2022/01/10 08:35:18;;;;;;;9.60;9.30;;;2.30;99.90;;;;;;5107993;28;20296;-82
2022/01/10 08:37:47;;;;;;;10.20;9.90;;;2.30;99.90;;;;;;5108724;28;20240;-82
2022/01/10 08:40:18;;;;;;;9.77;9.47;;;2.20;99.90;;;;;;5108992;28;20239;-82
2022/01/10 08:42:46;;;;;;;9.93;9.63;;;2.20;99.90;;;;;;5108357;28;20240;-82
2022/01/10 08:45:14;;;;;;;10.40;10.10;;;2.20;99.90;;;;;;5107419;28;20217;-81
2022/01/10 08:47:43;;;;;;;10.40;10.10;;;2.10;99.90;;;;;;5108834;28;20268;-82
2022/01/10 08:50:12;;;;;;;10.50;10.20;;;2.00;99.90;;;;;;5108532;28;20248;-82
2022/01/10 08:52:41;;;;;;;10.03;9.73;;;1.90;99.90;;;;;;5108900;28;20285;-82
2022/01/10 08:55:11;;;;;;;10.10;9.80;;;1.90;99.90;;;;;;5109274;28;20287;-82
2022/01/10 08:57:39;;;;;;;9.90;9.60;;;2.00;99.90;;;;;;5109325;28;20252;-83
2022/01/10 09:00:09;;;;;;;9.80;9.50;;;2.10;99.90;;;;;;5108476;28;20240;-82
2022/01/10 09:02:38;;;;;;;9.87;9.57;;;2.10;99.90;;;;;;5109057;28;20279;-82
2022/01/10 09:05:09;;;;;;;9.90;9.60;;;2.20;99.90;;;;;;5108264;28;20222;-81
2022/01/10 09:07:37;;;;;;;9.83;9.53;;;2.20;99.90;;;;;;5107616;28;20269;-82
2022/01/10 09:10:06;;;;;;;10.13;9.83;;;2.30;99.90;;;;;;5102797;28;20234;-81
2022/01/10 09:12:34;;;;;;;10.03;9.73;;;2.40;99.90;;;;;;5108992;28;20244;-81
2022/01/10 09:15:02;;;;;;;9.80;9.50;;;2.60;99.90;;;;;;5109770;28;20225;-82
2022/01/10 09:17:29;;;;;;;9.80;9.50;;;2.70;99.90;;;;;;5110562;28;20234;-84
2022/01/10 09:19:57;;;;;;;10.00;9.70;;;2.80;99.90;;;;;;5121570;27;20223;-82
2022/01/10 09:22:27;;;;;;;10.03;9.73;;;2.80;99.90;;;;;;5123402;27;20277;-82
2022/01/10 09:24:55;;;;;;;10.40;10.10;;;2.80;99.90;;;;;;5123508;27;20212;-82
2022/01/10 09:27:45;;;;;;;10.27;9.97;;;2.80;99.90;;;;;;5123619;27;20213;-82
2022/01/10 09:30:13;;;;;;;10.40;10.10;;;2.90;99.90;;;;;;5124148;27;20317;-82
2022/01/10 09:32:42;;;;;;;10.30;10.00;;;2.90;99.90;;;;;;5123018;27;20251;-81
2022/01/10 09:35:10;;;;;;;9.93;9.63;;;3.00;99.90;;;;;;5121986;27;20236;-81
2022/01/10 09:37:40;;;;;;;10.60;10.30;;;3.20;99.90;;;;;;5123049;27;20236;-82
2022/01/10 09:40:09;;;;;;;10.10;9.80;;;3.30;99.90;;;;;;5122872;27;20225;-82
2022/01/10 09:42:38;;;;;;;10.23;9.93;;;3.40;99.90;;;;;;5123003;27;20217;-81
2022/01/10 09:45:07;;;;;;;10.00;9.70;;;3.50;99.90;;;;;;5122496;27;20217;-81
2022/01/10 09:47:35;;;;;;;9.80;9.50;;;3.50;99.90;;;;;;5122711;27;20229;-82
2022/01/10 09:50:04;;;;;;;9.70;9.40;;;3.60;99.90;;;;;;5122890;27;20213;-83
2022/01/10 09:52:32;;;;;;;9.63;9.33;;;3.60;99.90;;;;;;5122482;27;20225;-82
2022/01/10 09:55:01;;;;;;;9.80;9.50;;;3.70;99.90;;;;;;5122166;27;20210;-82
2022/01/10 09:57:29;;;;;;;9.70;9.40;;;3.80;99.90;;;;;;5121442;27;20217;-83
2022/01/10 09:59:58;;;;;;;9.83;9.53;;;3.80;99.90;;;;;;5119086;27;20238;-82
2022/01/10 10:02:31;;;;;;;9.50;9.20;;;3.90;99.90;;;;;;5116968;28;20279;-81
2022/01/10 10:05:01;;;;;;;9.20;8.90;;;4.00;99.90;;;;;;5117698;28;20216;-81
2022/01/10 10:07:29;;;;;;;9.47;9.17;;;4.10;99.90;;;;;;5116478;28;20252;-82
2022/01/10 10:09:58;;;;;;;9.13;8.83;;;4.20;99.90;;;;;;5102202;28;20238;-82
2022/01/10 10:12:31;;;;;;;9.30;9.00;;;4.40;99.90;;;;;;5114495;28;20237;-82
2022/01/10 10:15:01;;;;;;;9.20;8.90;;;4.40;99.90;;;;;;5101674;28;20209;-83
2022/01/10 10:17:30;;;;;;;9.17;8.87;;;4.50;99.90;;;;;;5099022;28;20242;-83
2022/01/10 10:20:09;;;;;;;8.90;8.70;;;4.50;99.90;;;;;;5100417;28;20230;-82
2022/01/10 10:22:40;;;;;;;8.90;8.70;;;4.50;99.90;;;;;;5100615;28;20241;-83
2022/01/10 10:25:09;;;;;;;9.47;9.17;;;4.50;99.90;;;;;;5101163;28;20228;-83
2022/01/10 10:27:40;;;;;;;9.23;8.93;;;4.50;99.90;;;;;;5098420;27;20237;-83
2022/01/10 10:30:12;;;;;;;9.53;9.23;;;4.50;99.90;;;;;;5097816;28;20242;-82
2022/01/10 10:32:41;;;;;;;9.40;9.10;;;4.50;99.90;;;;;;5096991;28;20226;-83
2022/01/10 10:35:11;;;;;;;9.33;9.03;;;4.60;99.90;;;;;;5107932;28;20225;-84
2022/01/10 10:37:41;;;;;;;9.10;8.90;;;4.70;99.90;;;;;;5118641;27;20217;-82
2022/01/10 10:40:14;;;;;;;8.80;8.60;;;4.70;99.90;;;;;;5101869;27;20294;-82
2022/01/10 10:42:58;;;;;;;8.70;8.50;;;4.70;99.90;;;;;;5097501;28;20226;-81
2022/01/10 10:45:28;;;;;;;8.73;8.53;;;4.70;99.90;;;;;;5099889;28;20222;-82
2022/01/10 10:47:59;;;;;;;9.07;8.87;;;4.60;99.90;;;;;;5118386;27;20242;-81
2022/01/10 10:50:29;;;;;;;8.80;8.60;;;4.60;99.90;;;;;;5121131;27;20240;-82
2022/01/10 10:52:57;;;;;;;8.80;8.60;;;4.50;99.90;;;;;;5121007;27;20222;-83
2022/01/10 10:55:25;;;;;;;9.00;8.80;;;4.50;99.90;;;;;;5120856;27;20218;-83
2022/01/10 10:57:54;;;;;;;8.80;8.60;;;4.40;99.90;;;;;;5121499;27;20252;-83
2022/01/10 11:00:22;;;;;;;9.33;9.03;;;4.30;99.90;;;;;;5121311;27;20210;-84
2022/01/10 11:02:52;;;;;;;8.80;8.60;;;4.40;99.90;;;;;;5120972;27;20257;-83
2022/01/10 11:05:20;;;;;;;8.90;8.70;;;4.40;99.90;;;;;;5121251;27;20273;-83
2022/01/10 11:07:48;;;;;;;9.07;8.87;;;4.50;99.90;;;;;;5121232;27;20225;-83
2022/01/10 11:10:16;;;;;;;8.90;8.70;;;4.50;99.90;;;;;;5121067;27;20248;-85
2022/01/10 11:12:52;;;;;;;8.97;8.77;;;4.60;99.90;;;;;;5121069;27;20226;-83
2022/01/10 11:15:22;;;;;;;8.53;8.33;;;4.80;99.90;;;;;;5121578;27;20201;-84
2022/01/10 11:17:52;;;;;;;8.93;8.73;;;4.80;99.90;;;;;;5121433;27;20205;-84
2022/01/10 11:20:23;;;;;;;8.87;8.67;;;4.70;99.90;;;;;;5121292;27;20213;-83
2022/01/10 11:22:57;;;;;;;8.90;8.70;;;4.80;99.90;;;;;;5120940;27;20213;-83
2022/01/10 11:25:32;;;;;;;8.70;8.50;;;4.80;99.90;;;;;;5120888;27;20232;-82
2022/01/10 11:28:07;;;;;;;9.00;8.80;;;4.80;99.90;;;;;;5120867;27;20217;-82
2022/01/10 11:30:47;;;;;;;8.50;8.30;;;4.70;99.90;;;;;;5121321;27;20208;-82
2022/01/10 11:33:17;;;;;;;8.93;8.73;;;4.70;99.90;;;;;;5121208;27;20210;-82
2022/01/10 11:35:55;;;;;;;9.30;9.00;;;4.80;99.90;;;;;;5121357;27;20201;-83
2022/01/10 11:38:29;;;;;;;8.77;8.57;;;4.80;99.90;;;;;;5117235;28;20304;-82
2022/01/10 11:41:07;;;;;;;8.67;8.47;;;4.90;99.90;;;;;;5113896;28;20283;-82
2022/01/10 11:43:45;;;;;;;8.83;8.63;;;4.90;99.90;;;;;;5111947;28;20221;-82
2022/01/10 11:46:25;;;;;;;8.83;8.63;;;4.80;99.90;;;;;;5109568;28;20263;-82
2022/01/10 11:48:57;;;;;;;8.90;8.70;;;4.80;99.90;;;;;;5108102;28;20243;-82
2022/01/10 11:51:34;;;;;;;8.97;8.77;;;4.80;99.90;;;;;;5109345;28;20225;-81
2022/01/10 11:54:22;;;;;;;8.90;8.70;;;4.80;99.90;;;;;;5119931;27;20268;-82
2022/01/10 11:56:53;;;;;;;8.70;8.50;;;4.90;99.90;;;;;;5118466;27;20193;-80
2022/01/10 11:59:25;;;;;;;9.20;8.90;;;4.90;99.90;;;;;;5120192;27;20213;-82
2022/01/10 12:02:03;;;;;;;9.27;8.97;;;5.00;99.90;;;;;;5119639;27;20213;-82
2022/01/10 12:04:36;;;;;;;8.97;8.77;;;5.10;99.90;;;;;;5134326;27;20227;-83
2022/01/10 12:07:06;;;;;;;8.90;8.70;;;5.10;99.90;;;;;;5114206;28;20229;-83
2022/01/10 12:09:35;;;;;;;8.87;8.67;;;5.20;99.90;;;;;;5113711;28;20228;-81
2022/01/10 12:12:04;;;;;;;9.13;8.83;;;5.20;99.90;;;;;;5118194;28;20233;-81
2022/01/10 12:14:32;;;;;;;9.40;9.10;;;5.20;99.90;;;;;;5126059;28;20235;-81
2022/01/10 12:17:03;;;;;;;9.30;9.00;;;5.00;99.90;;;;;;5125317;28;20944;-81
2022/01/10 12:19:31;;;;;;;9.20;8.90;;;5.00;99.90;;;;;;5124251;27;20225;-81
2022/01/10 12:21:59;;;;;;;9.00;8.80;;;5.10;99.90;;;;;;5091025;28;20249;-82
2022/01/10 12:24:27;;;;;;;8.77;8.57;;;5.10;99.90;;;;;;5084148;28;20260;-83
2022/01/10 12:26:56;;;;;;;8.80;8.60;;;5.10;99.90;;;;;;5081204;28;20237;-82
2022/01/10 12:29:24;;;;;;;8.97;8.77;;;5.20;99.90;;;;;;5086165;28;20234;-82
2022/01/10 12:31:55;;;;;;;8.97;8.77;;;5.20;99.90;;;;;;5092337;28;20225;-82
2022/01/10 12:34:25;;;;;;;9.30;9.00;;;5.10;99.90;;;;;;5103386;28;20221;-83
2022/01/10 12:36:53;;;;;;;8.90;8.70;;;5.00;99.90;;;;;;5086118;28;20278;-82
2022/01/10 12:39:28;;;;;;;8.83;8.63;;;5.00;99.90;;;;;;5120932;22;20237;-83
2022/01/10 12:42:03;;;;;;;9.33;9.03;;;5.00;99.90;;;;;;5101972;28;20225;-83
2022/01/10 12:44:32;;;;;;;9.20;8.90;;;5.10;99.90;;;;;;5102456;28;20237;-84
2022/01/10 12:47:02;;;;;;;8.83;8.63;;;5.10;99.90;;;;;;5102282;28;20233;-83
2022/01/10 12:49:41;;;;;;;9.03;8.80;;;5.10;99.90;;;;;;5101528;28;20237;-83
2022/01/10 12:52:09;;;;;;;9.10;8.83;;;5.00;99.90;;;;;;5112433;28;20228;-83
2022/01/10 12:54:38;;;;;;;8.87;8.67;;;5.10;99.90;;;;;;5121766;28;20250;-83
2022/01/10 12:57:08;;;;;;;9.23;8.93;;;5.10;99.90;;;;;;5118193;27;20224;-83
2022/01/10 12:59:38;;;;;;;8.90;8.70;;;5.10;99.90;;;;;;5122404;27;20233;-83
2022/01/10 13:02:09;;;;;;;9.10;8.80;;;5.00;99.90;;;;;;5121384;27;20264;-86
2022/01/10 13:04:46;;;;;;;9.20;8.90;;;5.00;99.90;;;;;;5123648;27;20237;-84
2022/01/10 13:07:16;;;;;;;9.37;9.07;;;4.90;99.90;;;;;;5123016;28;20248;-84
2022/01/10 13:09:47;;;;;;;9.43;9.13;;;4.90;99.90;;;;;;5125294;27;20237;-84
2022/01/10 13:12:26;;;;;;;10.40;10.10;;;4.90;99.90;;;;;;5125461;27;20225;-84
2022/01/10 13:14:54;;;;;;;9.97;9.67;;;5.00;99.90;;;;;;5125886;28;20310;-84
2022/01/10 13:17:24;;;;;;;10.13;9.83;;;5.00;99.90;;;;;;5126517;27;20224;-85